Terminal Aerodrome Forecast
Issued by NWS Corpus Christi, TX

Home | Current Version | Previous Version | Text Only | Print | Product List | Glossary On
Versions: 1 2 3 4 5 6 7 8 9 10 11 12 13 14 15 16 17 18 19
000
FTUS44 KCRP 251049 AAB
TAFCRP
TAF AMD
KCRP 251049Z 2511/2606 17006KT 3SM BR SCT004 BKN012
      TEMPO 2511/2513 1SM BR BKN004 OVC012
     FM251400 21009KT P6SM BKN008 OVC018
     FM251700 36009KT P6SM BKN025
     FM252000 07009KT P6SM SCT035
     FM260100 12008KT P6SM SKC=

USA.gov is the U.S. government's official web portal to all federal, state and local government web resources and services.